Time;durP1;ratioP1;P1;durP2;ratioP2;P2;SDS_P1;SDS_P2;PMS_P1;PMS_P2;Temp;Humidity;BMP_temperature;BMP_pressure;BME280_temperature;BME280_humidity;BME280_pressure;Samples;Min_cycle;Max_cycle;Signal;HPM_P1;HPM_P2
2021/03/31 04:15:45;;;;;;;8.95;6.25;;;;;;;4.84;74.84;99730.69;5919119;22;20267;-73
2021/03/31 04:18:12;;;;;;;14.55;7.28;;;;;;;4.85;74.78;99733.28;5012664;28;20030;-73
2021/03/31 04:20:39;;;;;;;18.98;6.78;;;;;;;4.77;75.38;99737.38;5012367;28;20041;-73
2021/03/31 04:23:05;;;;;;;12.07;6.40;;;;;;;4.70;75.58;99738.09;5010921;28;20474;-73
2021/03/31 04:25:30;;;;;;;12.68;6.15;;;;;;;4.65;75.91;99739.72;5012239;28;20044;-74
2021/03/31 04:28:00;;;;;;;15.60;6.57;;;;;;;4.64;75.91;99745.66;5012328;28;20018;-73
2021/03/31 04:30:25;;;;;;;10.13;6.50;;;;;;;4.61;76.02;99740.47;5012534;28;20164;-73
2021/03/31 04:32:52;;;;;;;9.73;6.10;;;;;;;4.71;75.65;99739.84;5011871;28;20121;-73
2021/03/31 04:35:20;;;;;;;12.27;6.47;;;;;;;4.58;76.14;99742.97;5010857;28;20030;-73
2021/03/31 04:37:46;;;;;;;13.77;6.13;;;;;;;4.68;75.41;99739.75;5012112;28;20022;-73
2021/03/31 04:40:13;;;;;;;12.52;6.18;;;;;;;4.64;75.75;99743.09;4841396;28;20042;-72
2021/03/31 04:42:39;;;;;;;10.07;5.95;;;;;;;4.63;75.73;99741.38;4880824;28;20656;-73
2021/03/31 04:45:07;;;;;;;12.10;6.00;;;;;;;4.64;75.62;99738.84;4904537;28;20347;-70
2021/03/31 04:47:33;;;;;;;11.70;6.15;;;;;;;4.65;75.57;99737.16;4952319;29;20146;-71
2021/03/31 04:49:58;;;;;;;8.35;5.65;;;;;;;4.56;76.09;99739.50;4953764;29;20039;-70
2021/03/31 04:52:24;;;;;;;13.05;6.07;;;;;;;4.48;76.37;99741.03;4953678;29;20082;-72
2021/03/31 04:54:49;;;;;;;13.02;6.53;;;;;;;4.47;76.35;99745.31;4888959;28;20058;-72
2021/03/31 04:57:15;;;;;;;14.10;7.07;;;;;;;4.50;76.34;99740.25;4918607;28;20362;-72
2021/03/31 04:59:40;;;;;;;13.27;6.70;;;;;;;4.58;76.19;99737.84;4864666;28;20080;-71
2021/03/31 05:02:05;;;;;;;9.90;6.22;;;;;;;4.52;76.18;99737.72;4917748;28;20589;-72
2021/03/31 05:04:30;;;;;;;14.07;7.05;;;;;;;4.56;76.32;99744.66;4894886;28;20099;-71
2021/03/31 05:06:56;;;;;;;11.52;6.85;;;;;;;4.56;76.07;99740.38;4888984;28;20038;-72
2021/03/31 05:09:21;;;;;;;16.25;7.20;;;;;;;4.45;76.55;99746.09;4919019;28;20068;-71
2021/03/31 05:11:46;;;;;;;12.95;7.93;;;;;;;4.48;76.46;99741.03;4866385;28;20066;-71
2021/03/31 05:14:12;;;;;;;17.83;6.57;;;;;;;4.48;76.64;99746.16;4915147;28;20423;-72
2021/03/31 05:16:37;;;;;;;12.98;6.53;;;;;;;4.55;76.47;99748.06;4867378;28;20041;-72
2021/03/31 05:19:02;;;;;;;12.73;6.43;;;;;;;4.53;76.27;99742.00;4974136;28;20184;-72
2021/03/31 05:21:28;;;;;;;14.13;6.82;;;;;;;4.51;76.31;99741.97;5032709;28;20037;-72
2021/03/31 05:23:53;;;;;;;13.75;6.80;;;;;;;4.58;76.27;99742.97;5032932;28;20041;-72
2021/03/31 05:26:18;;;;;;;13.50;6.18;;;;;;;4.57;76.10;99741.25;5014712;28;20035;-72
2021/03/31 05:28:44;;;;;;;10.82;6.70;;;;;;;4.58;76.40;99743.84;4912651;28;20047;-72
2021/03/31 05:31:09;;;;;;;14.90;6.47;;;;;;;4.63;75.90;99736.22;4956667;28;20027;-72
2021/03/31 05:33:35;;;;;;;11.82;5.60;;;;;;;4.63;75.70;99737.09;4956931;29;20105;-72
2021/03/31 05:36:00;;;;;;;13.82;6.25;;;;;;;4.64;75.69;99735.38;4956747;29;20035;-72
2021/03/31 05:38:26;;;;;;;11.85;7.13;;;;;;;4.58;76.00;99736.13;4956856;29;20082;-72
2021/03/31 05:40:51;;;;;;;15.65;7.60;;;;;;;4.61;76.04;99737.91;4956656;29;20023;-72
2021/03/31 05:43:17;;;;;;;9.85;6.20;;;;;;;4.66;75.78;99728.59;4956652;29;20027;-71
2021/03/31 05:45:43;;;;;;;12.30;7.53;;;;;;;4.63;75.89;99731.09;4899094;28;20449;-71
2021/03/31 05:48:09;;;;;;;15.70;7.45;;;;;;;4.77;75.40;99727.13;4956611;28;20020;-72
2021/03/31 05:50:34;;;;;;;16.80;7.07;;;;;;;4.97;74.93;99722.38;4956523;28;20023;-72
2021/03/31 05:53:00;;;;;;;18.83;7.38;;;;;;;5.09;74.29;99721.78;4955273;29;20396;-72
2021/03/31 05:55:25;;;;;;;12.80;7.20;;;;;;;5.30;73.53;99714.44;4909531;28;20118;-72
2021/03/31 05:57:50;;;;;;;13.15;7.20;;;;;;;5.38;73.04;99715.47;4956554;28;20102;-72
2021/03/31 06:00:19;;;;;;;14.07;6.35;;;;;;;5.65;72.23;99711.63;4956546;28;20094;-72
2021/03/31 06:02:46;;;;;;;15.77;6.43;;;;;;;5.78;71.35;99711.00;4956187;28;20050;-72
2021/03/31 06:05:13;;;;;;;12.10;6.13;;;;;;;5.79;71.67;99704.16;4956298;28;20059;-72
2021/03/31 06:07:43;;;;;;;10.70;6.63;;;;;;;5.83;71.33;99699.06;4943859;28;20108;-72
2021/03/31 06:10:09;;;;;;;;;;;;;;;6.11;70.51;99699.53;4948773;28;20116;-72
2021/03/31 06:12:36;;;;;;;16.23;6.65;;;;;;;6.43;69.38;99703.44;4955125;28;19989;-73
2021/03/31 06:15:13;;;;;;;15.55;7.13;;;;;;;6.65;68.07;99698.56;4954069;29;20023;-72
2021/03/31 06:17:54;;;;;;;11.60;6.10;;;;;;;6.99;66.86;99699.81;4954587;29;20094;-73
2021/03/31 06:20:42;;;;;;;15.27;7.32;;;;;;;7.53;65.70;99690.06;4955758;28;20078;-73
2021/03/31 06:25:55;;;;;;;16.38;6.85;;;;;;;8.28;62.23;99699.22;4954886;29;20090;-72
2021/03/31 06:28:34;;;;;;;13.93;5.90;;;;;;;9.48;59.36;99678.16;4955117;29;20468;-72
2021/03/31 06:31:12;;;;;;;12.38;6.65;;;;;;;9.63;57.86;99685.06;4955679;29;20038;-72
2021/03/31 06:33:42;;;;;;;10.80;5.75;;;;;;;9.80;58.53;99692.81;4954439;29;20030;-73
2021/03/31 06:36:10;;;;;;;12.20;5.97;;;;;;;10.04;56.94;99694.53;4955087;29;20042;-73
2021/03/31 06:38:38;;;;;;;11.25;5.88;;;;;;;9.13;59.01;99700.47;4953665;29;20019;-74
2021/03/31 06:41:38;;;;;;;14.65;7.65;;;;;;;8.45;62.14;99704.50;4955368;28;20524;-73
2021/03/31 06:44:22;;;;;;;14.65;7.13;;;;;;;8.34;62.57;99712.16;4954961;28;20047;-73
2021/03/31 06:49:39;;;;;;;13.73;6.70;;;;;;;9.69;58.75;99686.78;4953497;29;20036;-73
2021/03/31 06:52:10;;;;;;;13.30;6.75;;;;;;;9.66;59.18;99691.94;4955186;29;20034;-73
2021/03/31 06:54:52;;;;;;;13.20;6.72;;;;;;;9.60;59.33;99697.13;4955174;29;20030;-73
2021/03/31 06:57:29;;;;;;;16.10;7.35;;;;;;;9.60;59.23;99697.13;4955362;29;20031;-73
2021/03/31 06:59:57;;;;;;;21.23;6.70;;;;;;;9.68;59.08;99691.09;4954624;29;20094;-73
2021/03/31 07:02:23;;;;;;;14.88;7.07;;;;;;;10.46;57.48;99688.44;4954725;29;20023;-73
2021/03/31 07:04:48;;;;;;;17.73;6.68;;;;;;;10.29;57.25;99685.00;4955200;29;20457;-73
2021/03/31 07:07:13;;;;;;;12.77;6.88;;;;;;;9.49;59.43;99685.03;4954734;29;20046;-73
2021/03/31 07:09:39;;;;;;;14.40;6.43;;;;;;;9.64;59.74;99683.31;4954883;29;20046;-72
2021/03/31 07:12:23;;;;;;;14.23;7.18;;;;;;;9.68;59.39;99685.91;4953707;29;20055;-73
2021/03/31 07:14:49;;;;;;;11.73;7.28;;;;;;;9.74;59.48;99690.22;4954886;29;20038;-74
2021/03/31 07:17:24;;;;;;;14.75;6.90;;;;;;;9.70;60.37;99686.78;4954444;29;20495;-74
2021/03/31 07:19:50;;;;;;;13.43;7.55;;;;;;;9.31;61.17;99692.78;4903390;28;20378;-74
2021/03/31 07:22:16;;;;;;;15.45;7.18;;;;;;;9.39;61.10;99682.44;4953656;28;20038;-74
2021/03/31 07:24:41;;;;;;;15.10;7.55;;;;;;;9.05;62.08;99691.88;4952628;29;20023;-74
2021/03/31 07:27:13;;;;;;;30.48;7.97;;;;;;;9.17;61.33;99694.47;4954676;28;20034;-74
2021/03/31 07:32:30;;;;;;;14.88;7.38;;;;;;;10.37;58.70;99682.41;4954273;28;20035;-74
2021/03/31 07:34:57;;;;;;;18.25;8.38;;;;;;;11.85;54.00;99668.66;4953118;28;20138;-70
2021/03/31 07:37:23;;;;;;;15.32;7.68;;;;;;;12.82;51.35;99666.72;4954265;29;20027;-70
2021/03/31 07:39:49;;;;;;;15.73;7.93;;;;;;;13.78;49.33;99660.97;4954548;29;20038;-70
2021/03/31 07:42:14;;;;;;;16.80;7.50;;;;;;;14.34;47.08;99667.81;4954239;29;20030;-73
2021/03/31 07:44:41;;;;;;;10.77;6.72;;;;;;;15.82;44.21;99658.53;4952987;29;20030;-73
2021/03/31 07:47:07;;;;;;;15.80;7.55;;;;;;;17.60;40.64;99656.91;4953226;29;20023;-73
2021/03/31 07:49:34;;;;;;;13.50;6.13;;;;;;;19.92;35.63;99646.56;4953193;29;20559;-73
2021/03/31 07:52:04;;;;;;;11.40;6.90;;;;;;;19.79;34.89;99650.66;4954208;29;20031;-74
2021/03/31 07:54:32;;;;;;;9.93;6.20;;;;;;;20.98;33.12;99650.66;4954329;29;20042;-72
2021/03/31 07:56:59;;;;;;;16.58;7.40;;;;;;;18.53;36.74;99665.97;4953954;29;20473;-74
2021/03/31 07:59:25;;;;;;;15.98;7.22;;;;;;;17.10;40.22;99667.19;4953313;29;20066;-73
2021/03/31 08:01:53;;;;;;;19.55;7.18;;;;;;;15.80;42.79;99659.44;4954002;29;20058;-72
2021/03/31 08:04:22;;;;;;;16.33;7.70;;;;;;;15.12;43.58;99671.44;4952956;29;20110;-75
2021/03/31 08:06:50;;;;;;;15.10;7.75;;;;;;;15.36;43.83;99666.56;4952632;29;20031;-73
2021/03/31 08:09:21;;;;;;;13.35;7.75;;;;;;;15.40;43.85;99670.81;4952899;29;20388;-71
2021/03/31 08:11:55;;;;;;;13.38;7.07;;;;;;;15.34;44.44;99663.16;4946128;29;20440;-75
2021/03/31 08:14:27;;;;;;;14.77;8.40;;;;;;;15.32;44.75;99667.53;4947109;28;20026;-75
2021/03/31 08:16:55;;;;;;;18.15;7.85;;;;;;;15.08;45.62;99669.78;4953690;29;20030;-72
2021/03/31 08:19:29;;;;;;;11.70;7.93;;;;;;;15.89;43.40;99661.81;4953982;29;20380;-74
2021/03/31 08:21:57;;;;;;;12.32;7.90;;;;;;;16.41;42.23;99660.44;4951508;29;20404;-74
2021/03/31 08:24:46;;;;;;;13.25;8.10;;;;;;;17.41;39.27;99655.78;4952982;28;20050;-74
2021/03/31 08:27:13;;;;;;;14.00;7.38;;;;;;;17.92;39.39;99644.50;4953819;29;20031;-71
2021/03/31 08:29:38;;;;;;;22.15;6.97;;;;;;;19.05;37.45;99653.56;4984766;28;20024;-71
2021/03/31 08:32:06;;;;;;;15.63;8.05;;;;;;;18.17;38.42;99653.25;4953569;28;20042;-70
2021/03/31 08:34:34;;;;;;;17.73;6.75;;;;;;;19.09;37.77;99649.03;4952944;28;20019;-71
2021/03/31 08:37:02;;;;;;;14.63;6.97;;;;;;;18.29;37.82;99651.97;4953742;29;20034;-74
2021/03/31 08:39:27;;;;;;;16.95;7.75;;;;;;;17.88;39.00;99649.00;4953788;29;20023;-73
2021/03/31 08:41:56;;;;;;;25.13;8.13;;;;;;;20.18;36.03;99642.84;4953434;29;20042;-73
2021/03/31 08:44:26;;;;;;;18.08;7.78;;;;;;;19.36;36.05;99647.09;4954626;28;20109;-71
2021/03/31 08:46:52;;;;;;;14.65;7.63;;;;;;;19.97;35.24;99647.25;4957137;29;20130;-71
2021/03/31 08:49:24;;;;;;;19.05;7.68;;;;;;;20.70;33.40;99644.03;4956310;29;20547;-71
2021/03/31 08:51:52;;;;;;;15.98;7.97;;;;;;;23.50;29.29;99634.13;4957373;28;20031;-73
2021/03/31 08:54:33;;;;;;;16.98;7.88;;;;;;;24.95;27.23;99627.16;4957520;29;20051;-75
2021/03/31 08:57:07;;;;;;;12.02;7.65;;;;;;;27.28;24.96;99631.66;4956501;29;20412;-71
2021/03/31 08:59:39;;;;;;;14.45;7.50;;;;;;;28.53;23.01;99625.75;4954674;29;20034;-71
2021/03/31 09:02:05;;;;;;;11.68;7.97;;;;;;;26.82;24.91;99631.41;4956749;29;20031;-73
2021/03/31 09:04:32;;;;;;;15.60;6.90;;;;;;;28.80;23.40;99623.56;4957284;29;20023;-73
2021/03/31 09:06:58;;;;;;;12.73;7.20;;;;;;;28.23;23.68;99627.16;4956905;28;20027;-74
2021/03/31 09:09:24;;;;;;;15.93;7.40;;;;;;;28.06;23.64;99619.63;4956574;29;20027;-71
2021/03/31 09:12:00;;;;;;;12.38;7.43;;;;;;;29.48;21.78;99612.75;4957066;29;20111;-72
2021/03/31 09:14:26;;;;;;;15.32;7.65;;;;;;;30.29;20.51;99611.28;4956924;29;20019;-72
2021/03/31 09:17:16;;;;;;;14.93;6.93;;;;;;;30.89;20.57;99609.56;4956834;29;20027;-71
2021/03/31 09:19:42;;;;;;;13.48;6.60;;;;;;;31.82;19.54;99603.81;4954759;28;20097;-72
2021/03/31 09:22:16;;;;;;;12.40;7.50;;;;;;;30.21;21.05;99599.41;4909862;28;20039;-72
2021/03/31 09:24:44;;;;;;;14.50;7.35;;;;;;;29.41;21.05;99604.41;4956908;29;20035;-72
2021/03/31 09:27:13;;;;;;;13.30;6.55;;;;;;;31.66;19.71;99587.41;4957084;29;20023;-72
2021/03/31 09:29:46;;;;;;;17.55;8.45;;;;;;;30.84;19.75;99595.75;4956607;29;20019;-72
2021/03/31 09:32:15;;;;;;;13.35;7.90;;;;;;;31.84;18.24;99591.09;4953964;29;20074;-72
2021/03/31 09:34:41;;;;;;;13.32;7.60;;;;;;;32.60;17.66;99582.13;4956841;29;20034;-72
2021/03/31 09:37:13;;;;;;;11.10;7.20;;;;;;;33.47;16.79;99582.47;4956567;29;20031;-72
2021/03/31 09:39:53;;;;;;;22.15;8.82;;;;;;;29.80;19.66;99581.56;4909892;28;20043;-71
2021/03/31 09:42:29;;;;;;;21.00;8.07;;;;;;;28.74;20.20;99584.03;4955723;28;20023;-71
2021/03/31 09:44:55;;;;;;;17.38;7.90;;;;;;;32.05;17.41;99577.50;4954812;29;20443;-71
2021/03/31 09:47:22;;;;;;;12.02;8.02;;;;;;;33.19;16.78;99568.22;4956269;29;20035;-71
2021/03/31 09:49:52;;;;;;;12.35;7.13;;;;;;;33.44;16.79;99572.00;4955161;29;20090;-71
2021/03/31 09:52:31;;;;;;;16.35;7.78;;;;;;;34.40;15.20;99574.72;4954953;29;20027;-71
2021/03/31 09:57:30;;;;;;;16.27;7.60;;;;;;;33.94;15.96;99568.75;5109573;27;20884;-70
2021/03/31 10:00:16;;;;;;;12.30;7.00;;;;;;;31.95;16.71;99566.78;5109731;28;20034;-70
2021/03/31 10:02:43;;;;;;;11.32;7.50;;;;;;;32.85;15.95;99559.94;5109613;28;20031;-70
2021/03/31 10:05:12;;;;;;;15.98;7.85;;;;;;;32.09;16.77;99556.59;5108138;28;20024;-71
2021/03/31 10:07:38;;;;;;;9.80;6.30;;;;;;;33.95;16.12;99559.69;5108895;28;20087;-70
2021/03/31 10:10:06;;;;;;;10.77;7.75;;;;;;;34.21;14.59;99559.66;5109327;28;20032;-71
2021/03/31 10:12:33;;;;;;;13.55;6.70;;;;;;;34.96;14.41;99553.59;5109424;28;20023;-70
2021/03/31 10:15:01;;;;;;;12.13;7.97;;;;;;;34.31;14.85;99539.84;5118349;27;20429;-70
2021/03/31 10:17:29;;;;;;;24.42;17.52;;;;;;;34.84;14.21;99534.19;5120407;27;20030;-71
2021/03/31 10:20:11;;;;;;;11.85;8.70;;;;;;;32.13;16.30;99541.91;5128197;27;20027;-71
2021/03/31 10:22:37;;;;;;;12.90;7.20;;;;;;;33.13;15.92;99530.41;5114371;28;20050;-71
2021/03/31 10:25:02;;;;;;;12.05;6.93;;;;;;;31.28;16.84;99530.16;5121009;27;20110;-71
2021/03/31 10:27:43;;;;;;;8.52;6.72;;;;;;;32.88;15.73;99522.06;5129789;27;20421;-70
2021/03/31 10:30:22;;;;;;;10.02;6.40;;;;;;;33.37;15.90;99522.56;5128492;27;20030;-71
2021/03/31 10:32:48;;;;;;;;;;;;;;;31.59;17.89;99522.00;5077216;22;20048;-73
2021/03/31 10:35:13;;;;;;;15.10;6.93;;;;;;;33.19;15.00;99514.50;5047413;28;19920;-71
2021/03/31 10:37:44;;;;;;;8.30;6.57;;;;;;;33.12;14.85;99509.88;5047391;28;20116;-71
2021/03/31 10:48:40;;;;;;;10.35;5.90;;;;;;;35.00;13.86;99498.38;5013093;28;20558;-73
2021/03/31 10:51:21;;;;;;;8.23;6.00;;;;;;;34.66;13.92;99503.84;5028250;28;20398;-71
2021/03/31 10:53:59;;;;;;;15.85;5.90;;;;;;;35.43;13.21;99504.47;5014777;28;20030;-71
2021/03/31 10:56:25;;;;;;;7.50;6.20;;;;;;;35.33;13.35;99495.69;5014451;28;20028;-73
2021/03/31 10:58:50;;;;;;;10.05;5.72;;;;;;;35.28;12.76;99493.50;4995930;28;20038;-73
2021/03/31 11:01:16;;;;;;;11.38;5.88;;;;;;;33.09;14.81;99491.41;5014804;28;20088;-72
2021/03/31 11:03:41;;;;;;;13.73;5.68;;;;;;;35.47;12.86;99487.81;5016309;28;20113;-73
2021/03/31 11:06:07;;;;;;;9.27;5.70;;;;;;;35.79;11.92;99486.91;5018281;28;20133;-73
2021/03/31 11:08:33;;;;;;;9.07;5.95;;;;;;;35.34;12.49;99482.03;5005674;28;20021;-71
2021/03/31 11:10:58;;;;;;;6.80;5.25;;;;;;;34.55;13.07;99479.91;5005652;28;20111;-71
2021/03/31 11:13:23;;;;;;;11.98;5.72;;;;;;;34.13;13.79;99475.34;5006131;28;20037;-71
2021/03/31 11:15:52;;;;;;;8.73;5.05;;;;;;;33.98;12.02;99477.81;5003083;28;20017;-72
2021/03/31 11:18:38;;;;;;;8.20;4.82;;;;;;;33.82;12.66;99467.78;5005144;28;20061;-71
2021/03/31 11:26:31;;;;;;;10.40;4.20;;;;;;;33.94;11.51;99455.78;5005887;28;20029;-71
2021/03/31 11:28:56;;;;;;;7.47;5.40;;;;;;;34.89;12.33;99442.94;5006064;28;20022;-71
2021/03/31 11:31:23;;;;;;;8.77;5.07;;;;;;;34.03;12.69;99447.75;5004045;28;20835;-72
2021/03/31 11:33:49;;;;;;;8.48;5.68;;;;;;;35.07;11.70;99442.00;5001560;28;20273;-71
2021/03/31 11:36:14;;;;;;;7.40;4.90;;;;;;;35.48;11.13;99440.13;4994675;28;20026;-71
2021/03/31 11:38:40;;;;;;;12.07;5.20;;;;;;;34.71;12.42;99447.63;4992670;28;20038;-71
2021/03/31 11:41:07;;;;;;;8.38;4.85;;;;;;;33.69;13.57;99440.47;4922138;28;20298;-71
2021/03/31 11:43:33;;;;;;;10.18;6.47;;;;;;;34.74;11.52;99436.53;4953402;28;20029;-71
2021/03/31 11:45:58;;;;;;;8.18;5.80;;;;;;;32.31;14.07;99427.47;4944862;28;20015;-71
2021/03/31 11:48:24;;;;;;;7.80;5.57;;;;;;;33.81;12.38;99428.47;4943707;28;20039;-71
2021/03/31 11:50:49;;;;;;;20.98;14.48;;;;;;;34.69;11.95;99428.13;4945009;28;20363;-71
2021/03/31 11:53:14;;;;;;;8.73;5.00;;;;;;;33.58;12.12;99422.78;4943992;28;20117;-71
2021/03/31 11:55:40;;;;;;;12.85;5.22;;;;;;;33.43;13.06;99422.53;4943672;28;20110;-71
2021/03/31 11:58:05;;;;;;;9.38;4.55;;;;;;;35.01;11.90;99412.03;4944163;28;20069;-70
2021/03/31 12:00:31;;;;;;;9.35;4.75;;;;;;;34.27;11.90;99413.69;4945248;28;20037;-71
2021/03/31 12:02:56;;;;;;;11.73;4.53;;;;;;;32.70;12.05;99405.78;4945282;28;20035;-71
2021/03/31 12:05:22;;;;;;;6.90;4.20;;;;;;;34.10;10.99;99403.06;4952203;28;20023;-70
2021/03/31 12:07:47;;;;;;;5.25;4.05;;;;;;;34.15;11.62;99406.94;4950512;28;20059;-71
2021/03/31 12:10:13;;;;;;;10.65;4.50;;;;;;;32.84;13.02;99402.53;4975323;28;20030;-70
2021/03/31 12:12:40;;;;;;;9.80;4.60;;;;;;;30.78;13.76;99404.47;4988459;28;20117;-70
2021/03/31 12:15:10;;;;;;;7.55;5.05;;;;;;;29.55;15.06;99403.81;4986081;28;20105;-70
2021/03/31 12:17:37;;;;;;;6.15;4.78;;;;;;;28.24;16.02;99401.44;4948382;28;20048;-70
2021/03/31 12:20:03;;;;;;;14.95;6.25;;;;;;;27.58;18.02;99401.34;4950423;28;20027;-70
2021/03/31 12:22:28;;;;;;;7.15;4.85;;;;;;;26.43;18.65;99401.19;4947284;28;20022;-70
2021/03/31 12:24:54;;;;;;;16.38;5.57;;;;;;;26.11;18.79;99397.25;4951649;28;20050;-70
2021/03/31 12:27:22;;;;;;;18.65;9.75;;;;;;;25.95;18.91;99391.31;4928393;28;20044;-70
2021/03/31 12:29:47;;;;;;;13.33;6.90;;;;;;;25.84;19.00;99394.75;4935867;28;20035;-70
2021/03/31 12:32:14;;;;;;;11.13;5.80;;;;;;;25.51;20.61;99403.25;4926887;28;21497;-70
2021/03/31 12:34:42;;;;;;;9.15;5.18;;;;;;;25.07;19.59;99393.03;4926439;28;20039;-72
2021/03/31 12:37:07;;;;;;;16.63;6.13;;;;;;;25.97;19.49;99380.59;4952390;28;20020;-72
2021/03/31 12:39:33;;;;;;;12.18;5.70;;;;;;;25.98;20.65;99375.19;4951607;28;20042;-72
2021/03/31 12:41:59;;;;;;;8.00;6.15;;;;;;;26.00;19.53;99378.56;4952836;28;20022;-72
2021/03/31 12:44:24;;;;;;;9.48;5.60;;;;;;;26.02;18.48;99376.66;4950819;28;20481;-72
2021/03/31 12:46:49;;;;;;;13.98;5.85;;;;;;;26.05;18.17;99375.56;4965471;28;20117;-72
2021/03/31 12:49:15;;;;;;;14.32;6.28;;;;;;;25.86;18.00;99366.25;4932620;28;20062;-72
2021/03/31 12:51:44;;;;;;;9.35;6.07;;;;;;;25.56;17.96;99363.13;4947710;28;20027;-72
2021/03/31 12:54:25;;;;;;;7.57;5.55;;;;;;;25.72;19.12;99354.91;4958785;28;20109;-72
2021/03/31 12:56:50;;;;;;;8.02;5.18;;;;;;;25.51;19.03;99352.81;4970945;28;20034;-72
2021/03/31 12:59:16;;;;;;;9.98;6.50;;;;;;;25.52;18.71;99351.84;4969144;28;20019;-72
2021/03/31 13:01:41;;;;;;;18.17;6.32;;;;;;;25.26;18.50;99350.19;4977707;28;20109;-72
2021/03/31 13:04:07;;;;;;;9.20;5.85;;;;;;;25.23;18.07;99345.94;4984615;28;20713;-72
2021/03/31 13:06:35;;;;;;;9.13;5.30;;;;;;;25.47;18.14;99345.19;4981618;28;20034;-72
2021/03/31 13:09:00;;;;;;;12.68;5.80;;;;;;;25.33;17.18;99346.97;4983738;28;20602;-72
2021/03/31 13:11:26;;;;;;;8.52;5.20;;;;;;;25.26;17.73;99345.72;4980935;28;20042;-72
2021/03/31 13:16:47;;;;;;;13.02;5.07;;;;;;;25.54;17.47;99334.03;4977126;28;20491;-72
2021/03/31 13:27:22;;;;;;;10.75;5.57;;;;;;;25.20;16.49;99318.78;4991222;28;20113;-72
2021/03/31 13:32:23;;;;;;;13.25;5.55;;;;;;;25.20;17.10;99314.34;4913302;28;20033;-72
2021/03/31 13:34:53;;;;;;;9.30;4.50;;;;;;;25.59;16.73;99309.81;4972809;28;20023;-72
2021/03/31 13:37:27;;;;;;;5.93;4.18;;;;;;;25.68;16.66;99297.69;4970113;28;20026;-72
2021/03/31 13:39:54;;;;;;;10.05;4.28;;;;;;;25.88;17.13;99299.78;4970425;28;20022;-72
2021/03/31 13:42:21;;;;;;;9.68;4.70;;;;;;;25.96;17.34;99301.88;4969309;28;20156;-70
2021/03/31 13:44:47;;;;;;;10.48;4.63;;;;;;;25.61;17.52;99295.47;4968218;28;20034;-72
2021/03/31 13:47:17;;;;;;;10.18;4.68;;;;;;;25.77;17.21;99287.31;4976392;28;20573;-72
2021/03/31 13:49:55;;;;;;;7.43;4.72;;;;;;;25.77;17.65;99286.44;4982492;28;20472;-72
2021/03/31 13:52:26;;;;;;;10.88;5.22;;;;;;;25.62;17.90;99285.69;4974327;28;20105;-72
2021/03/31 13:54:54;;;;;;;9.40;4.68;;;;;;;25.73;16.86;99288.44;4987071;28;20023;-72
2021/03/31 13:57:23;;;;;;;10.48;4.97;;;;;;;25.70;16.16;99275.38;4975287;28;20454;-72
2021/03/31 13:59:49;;;;;;;8.27;4.63;;;;;;;25.76;17.31;99284.75;4957828;28;20058;-72
2021/03/31 14:02:14;;;;;;;10.60;4.43;;;;;;;25.85;16.86;99273.44;4951631;28;20035;-72
2021/03/31 14:04:39;;;;;;;10.70;4.70;;;;;;;25.78;17.24;99267.75;4922965;28;20027;-72
2021/03/31 14:07:05;;;;;;;6.20;4.05;;;;;;;26.04;16.93;99271.13;4965954;28;20388;-72
2021/03/31 14:09:31;;;;;;;9.35;4.60;;;;;;;25.73;16.09;99263.72;4974634;28;20066;-72
2021/03/31 14:11:56;;;;;;;7.57;4.53;;;;;;;25.96;16.33;99256.72;4975163;28;20651;-73
2021/03/31 14:14:22;;;;;;;9.25;4.72;;;;;;;25.74;17.66;99252.97;4971942;28;20037;-74
2021/03/31 14:16:57;;;;;;;7.10;4.10;;;;;;;26.01;17.30;99251.91;4981006;28;20467;-72
2021/03/31 14:19:24;;;;;;;6.70;4.28;;;;;;;26.19;18.47;99258.53;4939902;28;20106;-73
2021/03/31 14:21:49;;;;;;;15.48;3.90;;;;;;;26.17;17.32;99252.50;4949631;28;21210;-71
2021/03/31 14:24:14;;;;;;;7.68;3.60;;;;;;;26.30;16.49;99242.66;4917730;28;20390;-70
2021/03/31 14:26:40;;;;;;;7.97;4.82;;;;;;;26.16;15.30;99245.50;4963262;28;20023;-70
2021/03/31 14:29:05;;;;;;;8.55;3.28;;;;;;;26.12;14.53;99244.88;4963182;28;20030;-70
2021/03/31 14:31:34;;;;;;;7.68;3.13;;;;;;;25.92;14.55;99248.16;4968720;28;20441;-72
2021/03/31 14:34:01;;;;;;;6.55;2.85;;;;;;;26.17;15.04;99247.19;4977932;28;20031;-72
2021/03/31 14:36:26;;;;;;;4.32;3.03;;;;;;;26.47;15.01;99237.88;4983917;28;20109;-72
2021/03/31 14:38:52;;;;;;;4.00;3.03;;;;;;;26.19;15.00;99234.63;4991006;28;20149;-72
2021/03/31 14:41:17;;;;;;;6.25;3.05;;;;;;;25.24;15.25;99228.28;4991738;28;20034;-73
2021/03/31 14:43:43;;;;;;;4.78;3.10;;;;;;;25.64;15.01;99233.38;4983299;28;20038;-72
2021/03/31 14:46:09;;;;;;;21.52;4.82;;;;;;;26.02;15.40;99227.06;4984820;28;20030;-72
2021/03/31 14:48:36;;;;;;;10.52;3.58;;;;;;;26.06;16.03;99233.84;4995594;28;20026;-72
2021/03/31 14:51:01;;;;;;;9.98;3.28;;;;;;;25.84;15.13;99224.81;4994572;28;20026;-71
2021/03/31 15:01:38;;;;;;;8.32;4.05;;;;;;;25.53;17.47;99209.38;4994656;28;20041;-72
2021/03/31 15:04:04;;;;;;;7.68;4.53;;;;;;;25.50;17.18;99205.16;4977806;28;20030;-73
2021/03/31 15:06:29;;;;;;;10.85;3.75;;;;;;;25.40;18.15;99208.59;4995518;28;20031;-72
2021/03/31 15:08:54;;;;;;;11.00;3.50;;;;;;;25.42;17.84;99196.91;4985035;28;20392;-72
2021/03/31 15:11:20;;;;;;;12.68;3.70;;;;;;;25.64;17.82;99198.84;4964695;28;20496;-72
2021/03/31 15:13:46;;;;;;;7.93;3.30;;;;;;;25.56;18.38;99198.56;4988533;28;20030;-72
2021/03/31 15:16:12;;;;;;;11.15;3.80;;;;;;;25.53;18.47;99193.47;4984572;28;20035;-73
2021/03/31 15:18:38;;;;;;;6.07;3.75;;;;;;;25.48;19.37;99190.31;4995125;28;20026;-72
2021/03/31 15:23:45;;;;;;;7.70;3.83;;;;;;;25.38;19.28;99180.38;4995258;28;20030;-72
2021/03/31 15:26:11;;;;;;;9.25;3.63;;;;;;;25.54;18.52;99184.56;4995105;28;20030;-72
2021/03/31 15:28:36;;;;;;;9.30;4.18;;;;;;;24.93;19.58;99188.94;4994968;28;20040;-72
2021/03/31 15:31:05;;;;;;;10.35;4.80;;;;;;;24.90;20.56;99176.75;4994815;28;20022;-72
2021/03/31 15:33:32;;;;;;;10.33;5.23;;;;;;;24.91;20.75;99178.44;4994785;28;20065;-72
2021/03/31 15:35:57;;;;;;;13.75;5.15;;;;;;;25.17;20.67;99176.59;4983099;28;20766;-73
2021/03/31 15:38:24;;;;;;;11.25;5.43;;;;;;;25.21;20.77;99182.56;4978206;28;20030;-72
2021/03/31 15:40:51;;;;;;;9.00;5.28;;;;;;;25.23;20.39;99173.50;4986142;28;20034;-72
2021/03/31 15:43:16;;;;;;;12.98;5.15;;;;;;;25.05;20.31;99172.16;4978452;28;20046;-72
2021/03/31 15:45:42;;;;;;;10.30;5.57;;;;;;;25.02;20.58;99177.69;4987154;28;20023;-72
2021/03/31 15:48:09;;;;;;;8.30;4.90;;;;;;;24.99;21.15;99172.56;4985907;28;20038;-72
2021/03/31 15:50:36;;;;;;;12.38;6.40;;;;;;;24.96;20.46;99168.34;4981447;28;20480;-72
2021/03/31 15:53:01;;;;;;;13.30;4.38;;;;;;;24.65;21.65;99180.25;4990381;28;20158;-72
2021/03/31 15:55:27;;;;;;;15.43;5.38;;;;;;;24.79;21.48;99166.03;4974665;28;20026;-72
2021/03/31 15:57:52;;;;;;;8.93;5.28;;;;;;;24.82;21.67;99165.84;4981994;28;20033;-72
2021/03/31 16:00:18;;;;;;;8.82;5.30;;;;;;;24.07;21.45;99171.78;4983570;28;20034;-72
2021/03/31 16:02:43;;;;;;;16.38;5.30;;;;;;;24.52;21.35;99166.19;4988544;28;20062;-72
2021/03/31 16:05:15;;;;;;;8.00;5.70;;;;;;;24.50;21.92;99162.75;4983986;28;20038;-72
2021/03/31 16:07:40;;;;;;;13.15;5.63;;;;;;;24.46;21.52;99163.94;4982746;28;20101;-73
2021/03/31 16:10:08;;;;;;;7.72;5.05;;;;;;;24.50;21.42;99160.13;4971633;28;20125;-73
2021/03/31 16:12:34;;;;;;;12.90;4.93;;;;;;;24.45;21.21;99162.22;4980939;28;20093;-72
2021/03/31 16:14:59;;;;;;;11.48;5.22;;;;;;;24.42;21.84;99162.44;4985913;28;20109;-71
2021/03/31 16:17:25;;;;;;;18.80;6.95;;;;;;;24.33;22.02;99159.44;4981824;28;20035;-70
2021/03/31 16:19:50;;;;;;;8.02;4.72;;;;;;;24.20;22.69;99161.22;4974761;28;20054;-71
2021/03/31 16:22:16;;;;;;;10.85;4.18;;;;;;;24.20;21.95;99163.88;4974258;28;20034;-71
2021/03/31 16:24:45;;;;;;;10.07;4.40;;;;;;;23.91;22.13;99162.34;4973842;28;20035;-71
2021/03/31 16:27:11;;;;;;;5.77;3.80;;;;;;;23.66;21.79;99163.97;4974270;28;20502;-71
2021/03/31 16:32:22;;;;;;;9.95;4.07;;;;;;;23.25;21.41;99154.22;5008753;23;20076;-70
2021/03/31 16:34:48;;;;;;;29.63;4.93;;;;;;;23.04;21.75;99156.44;5001131;28;20538;-70
2021/03/31 16:37:13;;;;;;;7.07;4.30;;;;;;;23.12;21.57;99148.03;5004760;28;20121;-70
2021/03/31 16:39:38;;;;;;;12.50;4.25;;;;;;;23.18;21.46;99147.63;5013511;28;20029;-69